createdAt,value
2018-08-12T00:01:18.019Z,9.10
2018-08-12T00:03:46.583Z,10.08
2018-08-12T00:06:15.103Z,9.20
2018-08-12T00:08:44.304Z,9.07
2018-08-12T00:11:12.941Z,9.60
2018-08-12T00:13:41.513Z,9.85
2018-08-12T00:16:10.131Z,9.85
2018-08-12T00:18:38.716Z,9.77
2018-08-12T00:21:07.543Z,9.93
2018-08-12T00:23:36.073Z,10.30
2018-08-12T00:26:04.710Z,10.32
2018-08-12T00:28:33.308Z,12.05
2018-08-12T00:31:01.951Z,11.45
2018-08-12T00:33:30.574Z,10.93
2018-08-12T00:35:59.118Z,11.25
2018-08-12T00:38:27.638Z,10.53
2018-08-12T00:40:56.230Z,10.47
2018-08-12T00:43:24.814Z,9.28
2018-08-12T00:45:53.525Z,10.90
2018-08-12T00:48:22.076Z,10.20
2018-08-12T00:50:50.633Z,10.77
2018-08-12T00:53:19.163Z,10.93
2018-08-12T00:55:47.726Z,10.10
2018-08-12T00:58:16.313Z,9.03
2018-08-12T01:00:44.911Z,9.78
2018-08-12T01:03:13.480Z,10.40
2018-08-12T01:05:42.066Z,11.30
2018-08-12T01:08:10.696Z,9.43
2018-08-12T01:10:39.307Z,8.90
2018-08-12T01:13:07.884Z,10.23
2018-08-12T01:15:36.468Z,9.57
2018-08-12T01:18:05.932Z,9.33
2018-08-12T01:20:34.526Z,10.48
2018-08-12T01:23:03.039Z,9.80
2018-08-12T01:25:31.711Z,10.00
2018-08-12T01:28:00.274Z,11.57
2018-08-12T01:30:28.800Z,11.13
2018-08-12T01:32:57.395Z,10.08
2018-08-12T01:35:25.934Z,10.18
2018-08-12T01:37:54.521Z,9.33
2018-08-12T01:40:23.195Z,9.70
2018-08-12T01:42:51.735Z,10.03
2018-08-12T01:45:21.120Z,9.80
2018-08-12T01:47:49.795Z,11.18
2018-08-12T01:50:19.558Z,11.25
2018-08-12T01:52:48.141Z,12.60
2018-08-12T01:55:17.122Z,13.32
2018-08-12T01:57:45.682Z,14.05
2018-08-12T02:00:15.594Z,14.50
2018-08-12T02:02:44.280Z,12.88
2018-08-12T02:05:12.829Z,12.28
2018-08-12T02:07:41.871Z,16.40
2018-08-12T02:10:11.179Z,13.60
2018-08-12T02:12:40.357Z,15.10
2018-08-12T02:15:10.479Z,13.32
2018-08-12T02:17:39.507Z,13.35
2018-08-12T02:20:08.981Z,12.78
2018-08-12T02:22:38.122Z,15.00
2018-08-12T02:25:07.316Z,15.90
2018-08-12T02:27:35.892Z,14.80
2018-08-12T02:30:05.059Z,15.98
2018-08-12T02:32:33.569Z,14.93
2018-08-12T02:35:02.166Z,16.70
2018-08-12T02:37:30.699Z,15.28
2018-08-12T02:39:59.396Z,17.23
2018-08-12T02:42:27.944Z,16.35
2018-08-12T02:44:56.564Z,15.90
2018-08-12T02:47:25.132Z,17.12
2018-08-12T02:49:53.698Z,17.98
2018-08-12T02:52:22.250Z,17.50
2018-08-12T02:54:50.856Z,16.60
2018-08-12T02:57:19.489Z,15.53
2018-08-12T02:59:48.024Z,17.32
2018-08-12T03:02:16.596Z,14.40
2018-08-12T03:04:45.121Z,15.13
2018-08-12T03:07:13.623Z,16.52
2018-08-12T03:09:42.152Z,15.30
2018-08-12T03:12:10.725Z,15.72
2018-08-12T03:14:39.253Z,15.60
2018-08-12T03:17:07.829Z,15.40
2018-08-12T03:19:36.444Z,13.65
2018-08-12T03:22:04.957Z,12.93
2018-08-12T03:24:33.522Z,14.28
2018-08-12T03:27:02.046Z,12.65
2018-08-12T03:29:30.543Z,13.58
2018-08-12T03:31:59.073Z,12.63
2018-08-12T03:34:27.595Z,13.28
2018-08-12T03:36:56.134Z,12.85
2018-08-12T03:39:24.669Z,12.28
2018-08-12T03:41:53.189Z,11.73
2018-08-12T03:44:21.713Z,12.58
2018-08-12T03:46:50.276Z,10.38
2018-08-12T03:49:18.811Z,11.83
2018-08-12T03:51:47.340Z,10.70
2018-08-12T03:54:15.947Z,11.30
2018-08-12T03:56:44.475Z,11.95
2018-08-12T03:59:13.036Z,11.65
2018-08-12T04:01:41.624Z,10.98
2018-08-12T04:04:10.166Z,12.95
2018-08-12T04:06:38.709Z,13.70
2018-08-12T04:09:08.983Z,12.18
2018-08-12T04:11:37.496Z,10.93
2018-08-12T04:14:06.545Z,9.58
2018-08-12T04:16:35.228Z,11.30
2018-08-12T04:19:03.926Z,10.30
2018-08-12T04:21:32.434Z,9.68
2018-08-12T04:24:01.072Z,10.23
2018-08-12T04:26:29.594Z,11.22
2018-08-12T04:28:58.115Z,11.12
2018-08-12T04:31:26.642Z,11.20
2018-08-12T04:33:55.154Z,11.40
2018-08-12T04:36:23.811Z,11.60
2018-08-12T04:38:52.364Z,10.70
2018-08-12T04:41:20.868Z,9.80
2018-08-12T04:43:49.382Z,9.78
2018-08-12T04:46:17.920Z,9.40
2018-08-12T04:48:46.456Z,10.30
2018-08-12T04:51:14.967Z,10.15
2018-08-12T04:53:43.480Z,8.53
2018-08-12T04:56:11.981Z,10.30
2018-08-12T04:58:40.514Z,9.80
2018-08-12T05:01:09.099Z,9.78
2018-08-12T05:03:37.634Z,8.70
2018-08-12T05:06:06.173Z,8.25
2018-08-12T05:08:34.729Z,8.95
2018-08-12T05:11:03.251Z,9.23
2018-08-12T05:13:31.815Z,8.25
2018-08-12T05:16:00.387Z,8.37
2018-08-12T05:18:28.910Z,6.12
2018-08-12T05:20:57.485Z,6.15
2018-08-12T05:23:26.038Z,4.70
2018-08-12T05:25:54.585Z,4.57
2018-08-12T05:28:23.078Z,4.23
2018-08-12T05:30:51.620Z,3.00
2018-08-12T05:33:20.298Z,2.80
2018-08-12T05:35:48.797Z,3.07
2018-08-12T05:38:17.366Z,2.80
2018-08-12T05:40:45.889Z,2.93
2018-08-12T05:43:14.477Z,2.30
2018-08-12T05:45:43.060Z,2.50
2018-08-12T05:48:11.599Z,2.10
2018-08-12T05:50:40.120Z,3.20
2018-08-12T05:53:08.698Z,3.10
2018-08-12T05:55:37.193Z,2.73
2018-08-12T05:58:06.021Z,2.20
2018-08-12T06:00:34.583Z,2.90
2018-08-12T06:03:03.196Z,2.97
2018-08-12T06:05:31.735Z,3.30
2018-08-12T06:08:00.263Z,4.37
2018-08-12T06:10:29.105Z,3.43
2018-08-12T06:12:57.627Z,3.37
2018-08-12T06:15:26.211Z,4.13
2018-08-12T06:17:54.748Z,3.00
2018-08-12T06:20:23.277Z,3.23
2018-08-12T06:22:51.817Z,3.07
2018-08-12T06:25:25.910Z,3.70
2018-08-12T06:27:54.429Z,2.80
2018-08-12T06:30:22.937Z,2.90
2018-08-12T06:32:51.433Z,2.67
2018-08-12T06:35:19.973Z,3.27
2018-08-12T06:37:48.551Z,2.73
2018-08-12T06:40:17.084Z,3.80
2018-08-12T06:42:46.242Z,3.00
2018-08-12T06:45:17.359Z,2.53
2018-08-12T06:47:47.061Z,2.70
2018-08-12T06:50:15.638Z,1.83
2018-08-12T06:52:44.200Z,2.67
2018-08-12T06:55:13.548Z,1.50
2018-08-12T06:57:43.171Z,2.07
2018-08-12T07:00:13.759Z,1.83
2018-08-12T07:02:42.370Z,1.47
2018-08-12T07:05:11.717Z,1.57
2018-08-12T07:07:40.335Z,1.53
2018-08-12T07:10:11.498Z,1.43
2018-08-12T07:12:40.494Z,1.80
2018-08-12T07:15:12.441Z,1.00
2018-08-12T07:17:42.145Z,1.10
2018-08-12T07:20:11.952Z,1.33
2018-08-12T07:22:41.074Z,0.53
2018-08-12T07:25:11.406Z,1.53
2018-08-12T07:27:40.909Z,1.17
2018-08-12T07:30:11.752Z,1.00
2018-08-12T07:32:40.585Z,1.10
2018-08-12T07:35:10.265Z,1.30
2018-08-12T07:37:39.644Z,1.07
2018-08-12T07:40:11.168Z,0.77
2018-08-12T07:42:39.824Z,1.00
2018-08-12T07:45:10.625Z,0.67
2018-08-12T07:47:39.177Z,0.90
2018-08-12T07:50:08.591Z,0.77
2018-08-12T07:52:37.160Z,1.07
2018-08-12T07:55:06.881Z,1.33
2018-08-12T07:57:35.441Z,1.00
2018-08-12T08:00:05.262Z,0.63
2018-08-12T08:02:33.879Z,0.50
2018-08-12T08:05:02.480Z,0.43
2018-08-12T08:07:31.002Z,0.60
2018-08-12T08:09:59.538Z,0.40
2018-08-12T08:12:28.199Z,0.70
2018-08-12T08:14:56.795Z,0.50
2018-08-12T08:17:26.407Z,0.60
2018-08-12T08:19:54.997Z,0.43
2018-08-12T08:22:24.193Z,0.60
2018-08-12T08:24:52.728Z,1.27
2018-08-12T08:27:21.289Z,0.60
2018-08-12T08:29:49.886Z,1.30
2018-08-12T08:32:18.576Z,1.20
2018-08-12T08:34:47.056Z,0.50
2018-08-12T08:37:15.608Z,0.60
2018-08-12T08:39:44.374Z,0.63
2018-08-12T08:42:12.967Z,0.83
2018-08-12T08:44:41.543Z,0.57
2018-08-12T08:47:10.099Z,0.87
2018-08-12T08:49:38.740Z,0.60
2018-08-12T08:52:07.427Z,0.60
2018-08-12T08:54:35.990Z,0.40
2018-08-12T08:57:04.599Z,0.53
2018-08-12T08:59:33.506Z,0.90
2018-08-12T09:02:02.156Z,0.50
2018-08-12T09:04:30.738Z,0.40
2018-08-12T09:06:59.424Z,0.77
2018-08-12T09:09:28.074Z,0.60
2018-08-12T09:11:56.687Z,0.40
2018-08-12T09:14:25.241Z,0.50
2018-08-12T09:16:53.776Z,0.40
2018-08-12T09:19:22.341Z,0.40
2018-08-12T09:21:50.964Z,0.50
2018-08-12T09:24:19.563Z,0.50
2018-08-12T09:26:48.084Z,0.53
2018-08-12T09:29:16.639Z,0.97
2018-08-12T09:31:45.165Z,0.40
2018-08-12T09:34:13.710Z,0.67
2018-08-12T09:36:42.286Z,1.00
2018-08-12T09:39:12.253Z,0.60
2018-08-12T09:41:40.744Z,0.60
2018-08-12T09:44:09.375Z,3.37
2018-08-12T09:46:37.886Z,0.63
2018-08-12T09:49:06.484Z,0.50
2018-08-12T09:51:35.214Z,0.90
2018-08-12T09:54:03.661Z,0.90
2018-08-12T09:56:32.195Z,0.60
2018-08-12T09:59:00.787Z,0.70
2018-08-12T10:01:29.285Z,1.07
2018-08-12T10:03:57.794Z,0.70
2018-08-12T10:06:26.582Z,0.63
2018-08-12T10:08:55.221Z,0.50
2018-08-12T10:11:23.747Z,0.80
2018-08-12T10:13:52.323Z,0.60
2018-08-12T10:16:20.875Z,0.40
2018-08-12T10:18:49.389Z,0.80
2018-08-12T10:21:18.155Z,0.47
2018-08-12T10:23:47.920Z,0.57
2018-08-12T10:26:16.468Z,0.50
2018-08-12T10:28:45.053Z,0.60
2018-08-12T10:31:13.607Z,0.57
2018-08-12T10:33:42.135Z,0.33
2018-08-12T10:36:10.723Z,0.30
2018-08-12T10:38:39.229Z,0.60
2018-08-12T10:41:07.737Z,0.60
2018-08-12T10:43:36.298Z,0.53
2018-08-12T10:46:04.899Z,0.50
2018-08-12T10:48:33.462Z,0.30
2018-08-12T10:51:01.990Z,0.57
2018-08-12T10:53:30.566Z,0.50
2018-08-12T10:55:59.187Z,0.40
2018-08-12T10:58:27.814Z,0.50
2018-08-12T11:00:56.358Z,0.40
2018-08-12T11:03:24.972Z,0.50
2018-08-12T11:05:53.553Z,0.70
2018-08-12T11:08:22.140Z,0.57
2018-08-12T11:10:50.731Z,0.60
2018-08-12T11:13:19.266Z,0.67
2018-08-12T11:15:47.796Z,0.40
2018-08-12T11:18:16.320Z,0.40
2018-08-12T11:20:44.855Z,0.60
2018-08-12T11:23:13.386Z,0.60
2018-08-12T11:25:41.964Z,0.40
2018-08-12T11:28:10.580Z,0.70
2018-08-12T11:30:39.135Z,0.40
2018-08-12T11:33:07.658Z,0.50
2018-08-12T11:35:36.254Z,0.63
2018-08-12T11:38:04.866Z,0.50
2018-08-12T11:40:33.483Z,0.53
2018-08-12T11:43:02.016Z,0.50
2018-08-12T11:45:30.550Z,0.70
2018-08-12T11:47:59.072Z,0.60
2018-08-12T11:50:27.669Z,0.50
2018-08-12T11:52:56.240Z,0.47
2018-08-12T11:55:24.788Z,0.50
2018-08-12T11:57:53.304Z,0.77
2018-08-12T12:00:22.474Z,0.60
2018-08-12T12:02:52.077Z,0.60
2018-08-12T12:05:20.696Z,0.80
2018-08-12T12:07:49.341Z,0.40
2018-08-12T12:10:19.999Z,0.40
2018-08-12T12:12:49.505Z,0.80
2018-08-12T12:15:18.385Z,0.70
2018-08-12T12:17:47.586Z,0.57
2018-08-12T12:20:17.101Z,0.40
2018-08-12T12:22:46.395Z,0.50
2018-08-12T12:25:16.420Z,0.70
2018-08-12T12:27:44.967Z,0.83
2018-08-12T12:30:16.175Z,0.50
2018-08-12T12:32:45.570Z,0.53
2018-08-12T12:35:14.178Z,0.50
2018-08-12T12:37:43.127Z,0.83
2018-08-12T12:40:13.760Z,0.50
2018-08-12T12:42:42.678Z,0.47
2018-08-12T12:45:12.462Z,0.93
2018-08-12T12:47:41.442Z,0.60
2018-08-12T12:50:16.591Z,0.73
2018-08-12T12:52:45.589Z,0.50
2018-08-12T12:55:14.127Z,0.50
2018-08-12T12:57:42.675Z,0.80
2018-08-12T13:00:14.206Z,0.80
2018-08-12T13:02:42.912Z,0.73
2018-08-12T13:05:13.624Z,1.00
2018-08-12T13:07:43.091Z,0.83
2018-08-12T13:10:12.265Z,1.00
2018-08-12T13:12:41.740Z,0.63
2018-08-12T13:15:11.771Z,0.60
2018-08-12T13:17:40.672Z,0.60
2018-08-12T13:20:13.331Z,0.73
2018-08-12T13:22:42.553Z,0.63
2018-08-12T13:25:13.474Z,1.00
2018-08-12T13:27:42.768Z,0.77
2018-08-12T13:30:12.509Z,0.70
2018-08-12T13:32:42.192Z,0.73
2018-08-12T13:35:10.832Z,0.70
2018-08-12T13:37:39.452Z,1.77
2018-08-12T13:40:11.193Z,0.60
2018-08-12T13:42:40.640Z,1.27
2018-08-12T13:45:10.744Z,0.60
2018-08-12T13:47:40.353Z,1.23
2018-08-12T13:50:19.308Z,0.83
2018-08-12T13:52:48.785Z,0.73
2018-08-12T13:55:17.882Z,0.97
2018-08-12T13:57:47.021Z,0.77
2018-08-12T14:00:17.297Z,0.97
2018-08-12T14:02:45.931Z,0.50
2018-08-12T14:05:16.234Z,1.00
2018-08-12T14:07:45.203Z,0.70
2018-08-12T14:10:13.758Z,0.90
2018-08-12T14:12:42.343Z,0.50
2018-08-12T14:15:14.374Z,1.10
2018-08-12T14:17:44.028Z,0.67
2018-08-12T14:20:14.380Z,0.97
2018-08-12T14:22:43.267Z,0.63
2018-08-12T14:25:12.086Z,1.37
2018-08-12T14:27:42.678Z,0.90
2018-08-12T14:30:14.999Z,0.70
2018-08-12T14:32:44.395Z,0.80
2018-08-12T14:35:12.931Z,0.70
2018-08-12T14:37:41.736Z,0.80
2018-08-12T14:40:11.642Z,1.30
2018-08-12T14:42:40.205Z,0.87
2018-08-12T14:45:10.678Z,0.73
2018-08-12T14:47:40.605Z,0.50
2018-08-12T14:50:11.531Z,1.10
2018-08-12T14:52:40.093Z,1.13
2018-08-12T14:55:09.704Z,0.80
2018-08-12T14:57:38.312Z,2.60
2018-08-12T15:00:08.945Z,1.20
2018-08-12T15:02:37.514Z,1.20
2018-08-12T15:05:06.232Z,1.03
2018-08-12T15:07:34.749Z,0.93
2018-08-12T15:10:03.401Z,1.00
2018-08-12T15:12:31.996Z,0.90
2018-08-12T15:15:00.613Z,1.10
2018-08-12T15:17:29.198Z,0.77
2018-08-12T15:19:57.775Z,1.23
2018-08-12T15:22:26.503Z,1.60
2018-08-12T15:24:55.053Z,0.97
2018-08-12T15:27:23.608Z,1.40
2018-08-12T15:29:52.202Z,1.33
2018-08-12T15:32:20.728Z,1.40
2018-08-12T15:34:49.292Z,1.40
2018-08-12T15:37:18.010Z,1.33
2018-08-12T15:39:46.588Z,1.43
2018-08-12T15:42:15.215Z,1.70
2018-08-12T15:44:43.702Z,1.13
2018-08-12T15:47:12.242Z,0.97
2018-08-12T15:49:40.753Z,0.93
2018-08-12T15:52:09.612Z,1.60
2018-08-12T15:54:38.151Z,1.23
2018-08-12T15:57:06.790Z,1.03
2018-08-12T15:59:35.295Z,1.03
2018-08-12T16:02:03.950Z,0.90
2018-08-12T16:04:32.514Z,1.03
2018-08-12T16:07:01.129Z,0.90
2018-08-12T16:09:29.702Z,1.10
2018-08-12T16:11:58.229Z,1.17
2018-08-12T16:14:26.868Z,1.10
2018-08-12T16:16:55.424Z,1.13
2018-08-12T16:19:23.997Z,1.10
2018-08-12T16:21:52.657Z,1.10
2018-08-12T16:24:21.214Z,1.00
2018-08-12T16:26:49.793Z,1.63
2018-08-12T16:29:18.370Z,1.43
2018-08-12T16:31:46.912Z,1.23
2018-08-12T16:34:15.794Z,1.60
2018-08-12T16:36:44.545Z,1.40
2018-08-12T16:39:13.737Z,1.23
2018-08-12T16:41:42.321Z,1.80
2018-08-12T16:44:10.895Z,1.63
2018-08-12T16:46:39.481Z,1.77
2018-08-12T16:49:08.618Z,1.70
2018-08-12T16:51:37.158Z,1.60
2018-08-12T16:54:05.770Z,1.53
2018-08-12T16:56:34.379Z,1.20
2018-08-12T16:59:02.949Z,1.47
2018-08-12T17:01:31.510Z,1.37
2018-08-12T17:04:00.061Z,1.50
2018-08-12T17:06:28.604Z,1.40
2018-08-12T17:08:57.166Z,1.40
2018-08-12T17:11:25.860Z,1.00
2018-08-12T17:13:54.411Z,0.63
2018-08-12T17:16:23.008Z,0.80
2018-08-12T17:18:51.615Z,0.70
2018-08-12T17:21:20.338Z,1.00
2018-08-12T17:23:48.864Z,1.17
2018-08-12T17:26:17.453Z,1.40
2018-08-12T17:28:49.221Z,1.17
2018-08-12T17:31:17.828Z,1.10
2018-08-12T17:33:46.384Z,1.40
2018-08-12T17:36:14.891Z,1.30
2018-08-12T17:38:43.634Z,1.40
2018-08-12T17:41:12.119Z,1.10
2018-08-12T17:43:40.717Z,0.80
2018-08-12T17:46:09.438Z,1.37
2018-08-12T17:48:37.958Z,1.13
2018-08-12T17:51:06.573Z,1.33
2018-08-12T17:53:35.124Z,1.67
2018-08-12T17:56:03.727Z,1.50
2018-08-12T17:58:32.273Z,1.50
2018-08-12T18:01:00.822Z,1.57
2018-08-12T18:03:29.442Z,1.33
2018-08-12T18:05:58.016Z,1.23
2018-08-12T18:08:26.893Z,2.23
2018-08-12T18:10:55.865Z,1.80
2018-08-12T18:13:24.402Z,2.20
2018-08-12T18:15:52.992Z,2.07
2018-08-12T18:18:21.517Z,1.80
2018-08-12T18:20:50.052Z,1.50
2018-08-12T18:23:18.641Z,1.97
2018-08-12T18:25:47.221Z,1.53
2018-08-12T18:28:15.784Z,1.60
2018-08-12T18:30:44.352Z,2.27
2018-08-12T18:33:12.897Z,2.30
2018-08-12T18:35:42.220Z,1.30
2018-08-12T18:38:10.932Z,1.90
2018-08-12T18:40:39.541Z,1.57
2018-08-12T18:43:08.117Z,1.27
2018-08-12T18:45:36.726Z,1.40
2018-08-12T18:48:05.288Z,1.80
2018-08-12T18:50:33.843Z,1.00
2018-08-12T18:53:02.393Z,1.27
2018-08-12T18:55:30.948Z,1.70
2018-08-12T18:57:59.459Z,1.10
2018-08-12T19:00:27.972Z,1.07
2018-08-12T19:02:56.515Z,1.53
2018-08-12T19:05:25.080Z,1.13
2018-08-12T19:07:53.688Z,1.30
2018-08-12T19:10:22.542Z,1.40
2018-08-12T19:12:51.497Z,1.47
2018-08-12T19:15:20.404Z,1.50
2018-08-12T19:17:49.088Z,1.93
2018-08-12T19:20:17.611Z,2.47
2018-08-12T19:22:46.248Z,2.37
2018-08-12T19:25:14.806Z,2.13
2018-08-12T19:27:43.329Z,1.70
2018-08-12T19:30:13.354Z,1.37
2018-08-12T19:32:41.915Z,1.17
2018-08-12T19:35:11.528Z,1.80
2018-08-12T19:37:40.333Z,1.33
2018-08-12T19:40:09.512Z,1.80
2018-08-12T19:42:38.505Z,1.70
2018-08-12T19:45:08.308Z,1.87
2018-08-12T19:47:36.822Z,1.87
2018-08-12T19:50:06.037Z,2.43
2018-08-12T19:52:34.688Z,1.90
2018-08-12T19:55:03.249Z,1.87
2018-08-12T19:57:31.784Z,1.90
2018-08-12T20:00:00.358Z,1.60
2018-08-12T20:02:28.879Z,2.50
2018-08-12T20:04:57.440Z,1.67
2018-08-12T20:07:25.987Z,1.87
2018-08-12T20:09:54.544Z,2.00
2018-08-12T20:12:23.069Z,2.10
2018-08-12T20:14:51.658Z,1.63
2018-08-12T20:17:20.210Z,1.27
2018-08-12T20:19:48.748Z,1.43
2018-08-12T20:22:17.325Z,1.60
2018-08-12T20:24:45.988Z,2.13
2018-08-12T20:27:14.551Z,1.60
2018-08-12T20:29:43.579Z,1.40
2018-08-12T20:32:12.374Z,1.83
2018-08-12T20:34:40.929Z,2.53
2018-08-12T20:37:09.510Z,1.87
2018-08-12T20:39:38.148Z,2.27
2018-08-12T20:42:06.587Z,2.20
2018-08-12T20:44:35.175Z,2.20
2018-08-12T20:47:03.742Z,2.47
2018-08-12T20:49:32.292Z,2.30
2018-08-12T20:52:01.015Z,1.87
2018-08-12T20:54:29.573Z,2.10
2018-08-12T20:56:58.187Z,2.03
2018-08-12T20:59:26.759Z,1.83
2018-08-12T21:01:55.308Z,1.97
2018-08-12T21:04:23.841Z,2.60
2018-08-12T21:06:52.413Z,2.20
2018-08-12T21:09:20.959Z,3.50
2018-08-12T21:11:49.606Z,2.13
2018-08-12T21:14:18.095Z,2.17
2018-08-12T21:16:46.654Z,2.80
2018-08-12T21:19:15.240Z,2.60
2018-08-12T21:21:43.847Z,3.00
2018-08-12T21:24:12.411Z,2.00
2018-08-12T21:26:40.943Z,2.53
2018-08-12T21:29:09.524Z,2.40
2018-08-12T21:31:38.082Z,3.00
2018-08-12T21:34:06.666Z,2.00
2018-08-12T21:36:35.282Z,1.83
2018-08-12T21:39:06.240Z,3.10
2018-08-12T21:41:34.789Z,2.43
2018-08-12T21:44:04.272Z,2.20
2018-08-12T21:46:32.818Z,2.37
2018-08-12T21:49:01.393Z,2.70
2018-08-12T21:51:29.961Z,2.50
2018-08-12T21:53:58.499Z,2.33
2018-08-12T21:56:27.012Z,2.33
2018-08-12T21:58:55.591Z,2.23
2018-08-12T22:01:24.161Z,2.80
2018-08-12T22:03:52.724Z,2.30
2018-08-12T22:06:21.298Z,2.77
2018-08-12T22:08:49.840Z,1.93
2018-08-12T22:11:18.422Z,2.30
2018-08-12T22:13:47.204Z,3.20
2018-08-12T22:16:15.733Z,2.70
2018-08-12T22:18:44.307Z,2.50
2018-08-12T22:21:12.910Z,2.17
2018-08-12T22:23:41.458Z,1.93
2018-08-12T22:26:09.989Z,1.97
2018-08-12T22:28:38.534Z,1.70
2018-08-12T22:31:07.088Z,2.70
2018-08-12T22:33:35.613Z,2.00
2018-08-12T22:36:04.186Z,1.90
2018-08-12T22:38:32.714Z,2.00
2018-08-12T22:41:01.253Z,2.50
2018-08-12T22:43:29.868Z,2.70
2018-08-12T22:45:58.420Z,2.40
2018-08-12T22:48:26.922Z,2.17
2018-08-12T22:50:55.451Z,1.90
2018-08-12T22:53:23.988Z,1.57
2018-08-12T22:55:52.472Z,2.27
2018-08-12T22:58:21.041Z,2.77
2018-08-12T23:00:49.573Z,2.13
2018-08-12T23:03:18.100Z,1.93
2018-08-12T23:05:46.634Z,2.23
2018-08-12T23:08:15.180Z,2.50
2018-08-12T23:10:43.710Z,3.00
2018-08-12T23:13:12.237Z,2.53
2018-08-12T23:16:18.739Z,2.17
2018-08-12T23:18:47.240Z,2.30
2018-08-12T23:21:16.948Z,1.70
2018-08-12T23:23:46.652Z,2.60
2018-08-12T23:26:16.423Z,2.40
2018-08-12T23:28:46.064Z,1.80
2018-08-12T23:31:14.658Z,2.40
2018-08-12T23:33:43.322Z,1.90
2018-08-12T23:36:12.103Z,2.40
2018-08-12T23:38:40.658Z,1.67
2018-08-12T23:41:10.248Z,1.80
2018-08-12T23:43:38.788Z,1.87
2018-08-12T23:46:07.737Z,2.40
2018-08-12T23:48:36.332Z,2.60
2018-08-12T23:51:04.887Z,2.90
2018-08-12T23:53:33.422Z,2.50
2018-08-12T23:56:02.022Z,2.30
2018-08-12T23:58:30.546Z,2.97
